createdAt,value
2022-09-30T00:01:46.168Z,88.12
2022-09-30T00:04:16.510Z,88.19
2022-09-30T00:06:44.701Z,88.17
2022-09-30T00:09:13.255Z,88.05
2022-09-30T00:11:42.233Z,88.05
2022-09-30T00:14:16.154Z,88.01
2022-09-30T00:16:44.510Z,88.01
2022-09-30T00:19:13.132Z,88.02
2022-09-30T00:21:41.745Z,88.09
2022-09-30T00:24:09.448Z,88.06
2022-09-30T00:26:37.198Z,88.02
2022-09-30T00:29:05.222Z,88.03
2022-09-30T00:31:34.776Z,88.02
2022-09-30T00:34:07.123Z,87.94
2022-09-30T00:36:36.952Z,88.02
2022-09-30T00:39:06.940Z,88.03
2022-09-30T00:41:35.321Z,88.06
2022-09-30T00:44:23.290Z,88.07
2022-09-30T00:46:51.192Z,88.00
2022-09-30T00:49:23.455Z,87.95
2022-09-30T00:51:57.104Z,88.10
2022-09-30T00:54:30.796Z,88.05
2022-09-30T00:57:02.700Z,88.05
2022-09-30T00:59:39.368Z,88.08
2022-09-30T01:02:07.824Z,88.10
2022-09-30T01:04:36.619Z,88.04
2022-09-30T01:07:06.804Z,88.07
2022-09-30T01:09:37.509Z,88.03
2022-09-30T01:12:09.610Z,88.02
2022-09-30T01:14:38.496Z,88.12
2022-09-30T01:17:17.518Z,88.03
2022-09-30T01:20:03.721Z,88.09
2022-09-30T01:22:35.984Z,88.11
2022-09-30T01:25:51.584Z,88.18
2022-09-30T01:28:57.740Z,88.16
2022-09-30T01:31:54.850Z,88.17
2022-09-30T01:34:43.948Z,88.17
2022-09-30T01:37:23.597Z,88.12
2022-09-30T01:40:22.755Z,88.03
2022-09-30T01:43:08.588Z,88.07
2022-09-30T01:45:56.860Z,88.11
2022-09-30T01:48:31.371Z,88.12
2022-09-30T01:51:22.764Z,88.15
2022-09-30T01:53:58.812Z,88.20
2022-09-30T01:56:32.376Z,88.19
2022-09-30T01:59:06.643Z,88.21
2022-09-30T02:01:39.305Z,88.22
2022-09-30T02:04:12.757Z,88.22
2022-09-30T02:06:48.600Z,88.16
2022-09-30T02:09:42.126Z,88.20
2022-09-30T02:12:15.619Z,88.17
2022-09-30T02:14:56.479Z,88.16
2022-09-30T02:17:34.101Z,88.16
2022-09-30T02:20:21.011Z,88.18
2022-09-30T02:22:52.436Z,88.14
2022-09-30T02:25:27.376Z,88.12
2022-09-30T02:27:59.640Z,88.11
2022-09-30T02:30:28.635Z,88.10
2022-09-30T02:33:03.325Z,88.10
2022-09-30T02:36:00.435Z,88.08
2022-09-30T02:38:37.206Z,88.11
2022-09-30T02:41:13.913Z,88.22
2022-09-30T02:43:42.282Z,88.12
2022-09-30T02:46:40.966Z,88.06
2022-09-30T02:49:18.995Z,88.14
2022-09-30T02:51:56.966Z,88.04
2022-09-30T02:54:43.595Z,88.10
2022-09-30T02:57:19.191Z,88.14
2022-09-30T02:59:48.656Z,88.12
2022-09-30T03:02:16.481Z,88.15
2022-09-30T03:04:46.767Z,88.16
2022-09-30T03:07:14.918Z,88.24
2022-09-30T03:09:42.594Z,88.13
2022-09-30T03:12:23.652Z,88.06
2022-09-30T03:15:24.784Z,88.04
2022-09-30T03:18:40.540Z,88.08
2022-09-30T03:21:25.268Z,88.04
2022-09-30T03:23:55.464Z,87.98
2022-09-30T03:26:53.269Z,87.98
2022-09-30T03:29:41.110Z,88.06
2022-09-30T03:32:11.592Z,88.05
2022-09-30T03:35:03.477Z,88.03
2022-09-30T03:37:37.073Z,88.05
2022-09-30T03:40:17.714Z,88.05
2022-09-30T03:42:53.268Z,88.07
2022-09-30T03:45:31.849Z,88.10
2022-09-30T03:48:04.446Z,88.18
2022-09-30T03:50:36.259Z,88.17
2022-09-30T03:53:08.699Z,88.26
2022-09-30T03:55:45.029Z,88.30
2022-09-30T03:58:12.641Z,88.29
2022-09-30T04:00:46.435Z,88.31
2022-09-30T04:03:14.345Z,88.31
2022-09-30T04:05:42.661Z,88.33
2022-09-30T04:08:10.401Z,88.32
2022-09-30T04:10:44.033Z,88.35
2022-09-30T04:13:12.698Z,88.37
2022-09-30T04:15:40.782Z,88.39
2022-09-30T04:18:08.800Z,88.36
2022-09-30T04:20:38.455Z,88.34
2022-09-30T04:23:06.085Z,88.29
2022-09-30T04:25:33.667Z,88.31
2022-09-30T04:28:01.569Z,88.36
2022-09-30T04:30:33.404Z,88.38
2022-09-30T04:33:01.542Z,88.35
2022-09-30T04:35:30.168Z,88.31
2022-09-30T04:37:57.995Z,88.33
2022-09-30T04:40:26.235Z,88.35
2022-09-30T04:42:57.093Z,88.32
2022-09-30T04:45:25.526Z,88.33
2022-09-30T04:47:53.274Z,88.35
2022-09-30T04:50:21.331Z,88.27
2022-09-30T04:52:48.975Z,88.25
2022-09-30T04:55:16.716Z,88.30
2022-09-30T04:57:45.528Z,88.32
2022-09-30T05:00:13.368Z,88.31
2022-09-30T05:02:44.733Z,88.34
2022-09-30T05:05:12.727Z,88.39
2022-09-30T05:07:40.936Z,88.37
2022-09-30T05:10:10.719Z,88.42
2022-09-30T05:12:41.046Z,88.50
2022-09-30T05:15:09.857Z,88.47
2022-09-30T05:17:37.586Z,88.50
2022-09-30T05:20:10.905Z,88.45
2022-09-30T05:22:38.867Z,88.43
2022-09-30T05:25:07.236Z,88.51
2022-09-30T05:27:35.009Z,88.58
2022-09-30T05:30:03.038Z,88.57
2022-09-30T05:32:31.712Z,88.55
2022-09-30T05:34:59.354Z,88.53
2022-09-30T05:37:27.017Z,88.49
2022-09-30T05:39:55.339Z,88.53
2022-09-30T05:42:22.986Z,88.54
2022-09-30T05:44:50.614Z,88.57
2022-09-30T05:47:18.290Z,88.55
2022-09-30T05:49:46.493Z,88.61
2022-09-30T05:52:14.974Z,88.63
2022-09-30T05:54:42.628Z,88.62
2022-09-30T05:57:10.510Z,88.67
2022-09-30T05:59:38.154Z,88.71
2022-09-30T06:02:06.637Z,88.67
2022-09-30T06:04:34.434Z,88.71
2022-09-30T06:07:02.920Z,88.81
2022-09-30T06:09:32.876Z,88.85
2022-09-30T06:12:00.777Z,88.87
2022-09-30T06:14:28.958Z,89.08
2022-09-30T06:16:56.639Z,89.12
2022-09-30T06:19:24.314Z,89.14
2022-09-30T06:21:52.153Z,89.18
2022-09-30T06:24:19.907Z,89.31
2022-09-30T06:26:47.629Z,89.42
2022-09-30T06:29:15.343Z,89.51
2022-09-30T06:31:43.135Z,89.64
2022-09-30T06:34:10.973Z,89.89
2022-09-30T06:36:38.705Z,90.03
2022-09-30T06:39:10.163Z,90.29
2022-09-30T06:41:42.639Z,90.34
2022-09-30T06:44:11.222Z,90.50
2022-09-30T06:46:51.835Z,90.78
2022-09-30T06:49:21.621Z,90.94
2022-09-30T06:51:51.575Z,91.00
2022-09-30T06:54:20.628Z,91.02
2022-09-30T06:56:49.090Z,90.95
2022-09-30T06:59:17.219Z,91.14
2022-09-30T07:01:45.474Z,91.23
2022-09-30T07:04:13.708Z,91.09
2022-09-30T07:06:42.066Z,91.11
2022-09-30T07:09:11.778Z,90.81
2022-09-30T07:11:39.494Z,90.52
2022-09-30T07:14:08.236Z,90.50
2022-09-30T07:16:36.775Z,90.32
2022-09-30T07:19:06.932Z,90.11
2022-09-30T07:21:34.784Z,89.94
2022-09-30T07:24:02.572Z,89.52
2022-09-30T07:26:31.183Z,89.36
2022-09-30T07:29:00.310Z,89.24
2022-09-30T07:31:34.164Z,88.99
2022-09-30T07:34:07.305Z,88.70
2022-09-30T07:36:37.740Z,88.60
2022-09-30T07:39:08.115Z,88.47
2022-09-30T07:41:39.035Z,88.38
2022-09-30T07:44:13.278Z,88.17
2022-09-30T07:46:42.231Z,87.91
2022-09-30T07:49:14.821Z,87.72
2022-09-30T07:51:46.238Z,87.61
2022-09-30T07:54:16.553Z,87.28
2022-09-30T07:59:37.596Z,87.11
2022-09-30T08:02:11.207Z,87.12
2022-09-30T08:04:43.472Z,86.97
2022-09-30T08:07:13.301Z,86.42
2022-09-30T08:09:41.307Z,86.27
2022-09-30T08:12:09.819Z,86.20
2022-09-30T08:14:37.473Z,86.04
2022-09-30T08:17:05.248Z,85.82
2022-09-30T08:19:36.075Z,85.55
2022-09-30T08:22:04.410Z,85.22
2022-09-30T08:24:32.331Z,84.96
2022-09-30T08:27:00.057Z,84.75
2022-09-30T08:29:54.299Z,84.83
2022-09-30T08:32:15.956Z,84.37
2022-09-30T08:34:44.293Z,84.29
2022-09-30T08:37:12.006Z,84.26
2022-09-30T08:39:39.999Z,84.45
2022-09-30T08:42:49.145Z,84.28
2022-09-30T08:45:52.049Z,84.21
2022-09-30T08:48:28.953Z,83.98
2022-09-30T08:51:24.621Z,83.62
2022-09-30T08:53:53.024Z,83.48
2022-09-30T08:56:30.259Z,83.44
2022-09-30T08:59:24.548Z,83.40
2022-09-30T09:02:01.210Z,83.43
2022-09-30T09:04:29.089Z,83.18
2022-09-30T09:06:59.517Z,83.25
2022-09-30T09:09:57.965Z,83.39
2022-09-30T09:12:39.182Z,83.27
2022-09-30T09:15:22.055Z,83.33
2022-09-30T09:18:25.247Z,83.52
2022-09-30T09:20:59.958Z,83.14
2022-09-30T09:23:32.956Z,83.00
2022-09-30T09:26:00.779Z,82.80
2022-09-30T09:28:53.091Z,82.89
2022-09-30T09:31:22.121Z,82.63
2022-09-30T09:33:50.625Z,82.43
2022-09-30T09:36:41.984Z,82.39
2022-09-30T09:39:40.469Z,82.37
2022-09-30T09:45:20.566Z,81.72
2022-09-30T09:47:52.791Z,80.86
2022-09-30T09:50:27.775Z,80.61
2022-09-30T09:53:14.082Z,80.02
2022-09-30T09:55:42.499Z,79.47
2022-09-30T09:58:14.192Z,79.01
2022-09-30T10:00:48.008Z,78.29
2022-09-30T10:03:26.839Z,78.12
2022-09-30T10:06:10.252Z,78.63
2022-09-30T10:08:40.628Z,76.76
2022-09-30T10:11:20.924Z,76.64
2022-09-30T10:13:50.940Z,76.59
2022-09-30T10:16:38.164Z,77.30
2022-09-30T10:19:20.101Z,77.40
2022-09-30T10:21:47.883Z,77.25
2022-09-30T10:24:29.211Z,76.25
2022-09-30T10:26:57.289Z,75.57
2022-09-30T10:29:31.828Z,75.80
2022-09-30T10:32:02.008Z,75.07
2022-09-30T10:34:44.825Z,74.90
2022-09-30T10:37:19.864Z,74.04
2022-09-30T10:40:18.283Z,73.72
2022-09-30T10:42:48.546Z,73.92
2022-09-30T10:45:38.765Z,74.67
2022-09-30T10:48:16.154Z,73.41
2022-09-30T10:50:51.387Z,73.43
2022-09-30T10:53:26.402Z,74.17
2022-09-30T10:55:54.495Z,73.88
2022-09-30T10:58:28.709Z,73.85
2022-09-30T11:01:33.123Z,74.65
2022-09-30T11:04:22.988Z,73.72
2022-09-30T11:06:59.775Z,73.21
2022-09-30T11:09:27.387Z,73.51
2022-09-30T11:11:59.922Z,74.44
2022-09-30T11:14:38.641Z,74.81
2022-09-30T11:17:28.180Z,73.32
2022-09-30T11:20:17.207Z,73.44
2022-09-30T11:23:11.889Z,72.75
2022-09-30T11:25:50.423Z,72.88
2022-09-30T11:28:41.183Z,73.88
2022-09-30T11:31:08.905Z,74.15
2022-09-30T11:34:13.160Z,75.07
2022-09-30T11:37:17.184Z,75.09
2022-09-30T11:40:05.221Z,75.75
2022-09-30T11:42:54.670Z,76.06
2022-09-30T11:45:40.041Z,76.69
2022-09-30T11:48:32.853Z,76.80
2022-09-30T11:51:10.317Z,77.06
2022-09-30T11:54:04.819Z,76.63
2022-09-30T11:56:35.223Z,76.92
2022-09-30T11:59:08.019Z,75.97
2022-09-30T12:01:44.182Z,75.95
2022-09-30T12:04:44.528Z,75.84
2022-09-30T12:07:21.866Z,76.80
2022-09-30T12:10:05.917Z,76.65
2022-09-30T12:12:33.619Z,76.80
2022-09-30T12:15:05.958Z,75.72
2022-09-30T12:17:39.834Z,75.12
2022-09-30T12:20:37.319Z,75.36
2022-09-30T12:23:21.767Z,74.96
2022-09-30T12:25:55.978Z,74.49
2022-09-30T12:29:28.462Z,74.16
2022-09-30T12:32:29.521Z,74.63
2022-09-30T12:35:16.127Z,73.75
2022-09-30T12:38:10.086Z,73.50
2022-09-30T12:40:59.510Z,72.26
2022-09-30T12:43:51.387Z,72.37
2022-09-30T12:46:30.660Z,72.89
2022-09-30T12:49:05.855Z,73.40
2022-09-30T12:51:35.066Z,73.31
2022-09-30T12:54:18.996Z,73.12
2022-09-30T12:56:53.729Z,72.72
2022-09-30T12:59:26.650Z,73.40
2022-09-30T13:01:55.575Z,72.72
2022-09-30T13:04:35.737Z,72.87
2022-09-30T13:07:03.332Z,73.06
2022-09-30T13:10:09.550Z,73.50
2022-09-30T13:12:46.766Z,73.56
2022-09-30T13:15:40.738Z,73.22
2022-09-30T13:18:20.549Z,73.68
2022-09-30T13:20:58.869Z,73.45
2022-09-30T13:23:39.802Z,74.29
2022-09-30T13:26:22.692Z,73.81
2022-09-30T13:28:53.076Z,73.80
2022-09-30T13:31:23.900Z,72.85
2022-09-30T13:34:06.968Z,72.15
2022-09-30T13:36:40.766Z,71.78
2022-09-30T13:40:43.299Z,71.11
2022-09-30T13:43:25.870Z,69.88
2022-09-30T13:45:56.356Z,70.78
2022-09-30T13:48:30.442Z,71.18
2022-09-30T13:51:00.050Z,71.59
2022-09-30T13:53:55.520Z,71.55
2022-09-30T14:05:45.121Z,71.23
2022-09-30T14:08:42.553Z,71.11
2022-09-30T14:11:32.901Z,71.46
2022-09-30T14:14:35.580Z,71.31
2022-09-30T14:17:40.156Z,71.77
2022-09-30T14:20:43.094Z,72.12
2022-09-30T14:23:16.145Z,71.57
2022-09-30T14:26:05.769Z,71.38
2022-09-30T14:28:56.509Z,71.61
2022-09-30T14:31:25.414Z,71.84
2022-09-30T14:33:53.206Z,70.63
2022-09-30T14:36:30.550Z,71.37
2022-09-30T14:39:01.465Z,71.36
2022-09-30T14:41:30.018Z,72.17
2022-09-30T14:44:05.157Z,72.08
2022-09-30T14:46:40.072Z,71.49
2022-09-30T14:49:13.605Z,71.56
2022-09-30T14:51:44.738Z,71.36
2022-09-30T14:54:17.741Z,71.52
2022-09-30T14:56:45.812Z,71.42
2022-09-30T14:59:34.777Z,71.71
2022-09-30T15:02:12.846Z,71.39
2022-09-30T15:04:51.593Z,71.27
2022-09-30T15:07:20.035Z,71.03
2022-09-30T15:09:49.028Z,70.71
2022-09-30T15:12:23.014Z,70.61
2022-09-30T15:14:56.673Z,71.46
2022-09-30T15:17:44.731Z,72.03
2022-09-30T15:20:35.019Z,72.57
2022-09-30T15:23:11.046Z,72.46
2022-09-30T15:25:39.949Z,73.17
2022-09-30T15:28:11.301Z,73.29
2022-09-30T15:30:40.265Z,73.63
2022-09-30T15:33:18.267Z,74.20
2022-09-30T15:35:46.488Z,74.34
2022-09-30T15:38:23.510Z,74.70
2022-09-30T15:40:59.332Z,74.85
2022-09-30T15:43:40.354Z,75.13
2022-09-30T15:46:31.995Z,75.14
2022-09-30T15:49:02.113Z,75.47
2022-09-30T15:51:40.271Z,75.67
2022-09-30T15:54:32.854Z,76.48
2022-09-30T15:57:03.290Z,76.85
2022-09-30T16:00:07.821Z,77.20
2022-09-30T16:02:36.401Z,77.47
2022-09-30T16:05:05.493Z,77.89
2022-09-30T16:07:33.332Z,78.61
2022-09-30T16:10:01.205Z,78.96
2022-09-30T16:12:35.650Z,79.39
2022-09-30T16:15:14.455Z,79.61
2022-09-30T16:17:50.134Z,80.02
2022-09-30T16:20:17.962Z,79.87
2022-09-30T16:22:45.615Z,79.71
2022-09-30T16:25:19.215Z,79.85
2022-09-30T16:27:47.913Z,80.03
2022-09-30T16:30:19.178Z,80.50
2022-09-30T16:32:51.823Z,80.84
2022-09-30T16:35:25.089Z,81.29
2022-09-30T16:38:04.403Z,81.51
2022-09-30T16:40:33.606Z,81.62
2022-09-30T16:43:07.146Z,81.88
2022-09-30T16:45:35.770Z,82.17
2022-09-30T16:48:15.297Z,82.35
2022-09-30T16:50:51.741Z,82.50
2022-09-30T16:53:20.833Z,82.68
2022-09-30T16:55:51.155Z,82.72
2022-09-30T16:58:23.297Z,82.83
2022-09-30T17:00:52.517Z,83.02
2022-09-30T17:03:23.123Z,83.12
2022-09-30T17:05:53.259Z,83.36
2022-09-30T17:08:24.241Z,83.41
2022-09-30T17:10:52.242Z,83.55
2022-09-30T17:13:20.106Z,83.73
2022-09-30T17:15:52.478Z,83.87
2022-09-30T17:18:20.347Z,84.14
2022-09-30T17:20:52.822Z,84.27
2022-09-30T17:23:22.333Z,84.50
2022-09-30T17:25:50.242Z,84.59
2022-09-30T17:28:18.503Z,84.76
2022-09-30T17:30:50.607Z,84.93
2022-09-30T17:33:21.728Z,85.14
2022-09-30T17:36:06.310Z,85.17
2022-09-30T17:38:36.131Z,85.33
2022-09-30T17:41:25.366Z,85.49
2022-09-30T17:43:54.081Z,85.58
2022-09-30T17:46:25.650Z,85.59
2022-09-30T17:48:57.141Z,85.62
2022-09-30T17:51:25.464Z,85.84
2022-09-30T17:53:53.228Z,85.96
2022-09-30T17:56:22.669Z,86.03
2022-09-30T17:58:51.060Z,85.98
2022-09-30T18:01:21.540Z,86.18
2022-09-30T18:03:53.198Z,86.20
2022-09-30T18:06:21.241Z,86.27
2022-09-30T18:08:50.390Z,86.42
2022-09-30T18:11:26.113Z,86.59
2022-09-30T18:13:55.887Z,86.67
2022-09-30T18:16:25.348Z,86.81
2022-09-30T18:18:53.284Z,86.91
2022-09-30T18:21:21.027Z,86.97
2022-09-30T18:23:51.793Z,87.04
2022-09-30T18:26:20.279Z,87.04
2022-09-30T18:28:50.903Z,87.05
2022-09-30T18:31:28.448Z,87.14
2022-09-30T18:33:56.746Z,87.17
2022-09-30T18:36:37.385Z,87.16
2022-09-30T18:39:05.568Z,87.16
2022-09-30T18:41:35.741Z,87.09
2022-09-30T18:44:04.188Z,87.11
2022-09-30T18:46:31.962Z,87.09
2022-09-30T18:48:59.929Z,87.01
2022-09-30T18:51:28.715Z,86.96
2022-09-30T18:53:58.251Z,87.08
2022-09-30T18:56:32.095Z,87.09
2022-09-30T18:59:05.114Z,87.21
2022-09-30T19:01:34.500Z,87.31
2022-09-30T19:04:03.977Z,87.36
2022-09-30T19:06:33.130Z,87.44
2022-09-30T19:09:01.060Z,87.47
2022-09-30T19:11:30.858Z,87.58
2022-09-30T19:14:02.752Z,87.66
2022-09-30T19:16:36.635Z,87.66
2022-09-30T19:19:10.581Z,87.69
2022-09-30T19:21:39.457Z,87.72
2022-09-30T19:24:09.283Z,87.79
2022-09-30T19:26:38.797Z,87.84
2022-09-30T19:29:09.762Z,87.92
2022-09-30T19:31:38.505Z,87.97
2022-09-30T19:34:06.563Z,88.02
2022-09-30T19:36:45.243Z,87.98
2022-09-30T19:39:15.913Z,88.05
2022-09-30T19:41:46.458Z,88.13
2022-09-30T19:44:18.868Z,88.16
2022-09-30T19:46:51.674Z,88.17
2022-09-30T19:49:21.675Z,88.23
2022-09-30T19:51:52.920Z,88.26
2022-09-30T19:54:37.744Z,88.43
2022-09-30T19:57:08.791Z,88.37
2022-09-30T19:59:36.439Z,88.25
2022-09-30T20:02:04.112Z,88.50
2022-09-30T20:04:34.237Z,88.72
2022-09-30T20:07:02.259Z,88.78
2022-09-30T20:09:30.050Z,88.80
2022-09-30T20:11:57.701Z,88.88
2022-09-30T20:14:43.914Z,88.98
2022-09-30T20:17:12.367Z,88.94
2022-09-30T20:19:40.044Z,88.85
2022-09-30T20:22:07.723Z,88.95
2022-09-30T20:24:35.410Z,89.03
2022-09-30T20:27:03.115Z,89.15
2022-09-30T20:29:30.824Z,89.18
2022-09-30T20:32:02.304Z,89.21
2022-09-30T20:34:30.077Z,89.28
2022-09-30T20:36:57.784Z,89.30
2022-09-30T20:39:25.451Z,89.30
2022-09-30T20:41:55.880Z,89.31
2022-09-30T20:44:23.527Z,89.31
2022-09-30T20:46:51.203Z,89.33
2022-09-30T20:49:18.904Z,89.33
2022-09-30T20:51:46.552Z,89.34
2022-09-30T20:54:14.245Z,89.31
2022-09-30T20:57:05.841Z,89.30
2022-09-30T20:59:29.736Z,89.33
2022-09-30T21:01:57.451Z,89.30
2022-09-30T21:04:25.545Z,89.34
2022-09-30T21:06:53.230Z,89.37
2022-09-30T21:09:20.957Z,89.38
2022-09-30T21:11:48.600Z,89.38
2022-09-30T21:14:18.111Z,89.38
2022-09-30T21:16:45.837Z,89.34
2022-09-30T21:19:13.539Z,89.33
2022-09-30T21:21:41.194Z,89.32
2022-09-30T21:24:08.852Z,89.35
2022-09-30T21:26:36.496Z,89.38
2022-09-30T21:29:04.141Z,89.43
2022-09-30T21:31:33.418Z,89.43
2022-09-30T21:34:01.749Z,89.39
2022-09-30T21:36:29.729Z,89.32
2022-09-30T21:39:03.672Z,89.28
2022-09-30T21:41:33.571Z,89.25
2022-09-30T21:44:03.397Z,89.20
2022-09-30T21:46:31.165Z,89.17
2022-09-30T21:49:18.625Z,89.11
2022-09-30T21:51:47.306Z,89.14
2022-09-30T21:54:15.622Z,89.10
2022-09-30T21:56:43.947Z,89.09
2022-09-30T21:59:12.976Z,89.09
2022-09-30T22:01:41.088Z,89.10
2022-09-30T22:04:09.387Z,89.09
2022-09-30T22:06:37.077Z,89.09
2022-09-30T22:09:05.327Z,88.98
2022-09-30T22:11:33.538Z,88.93
2022-09-30T22:14:01.545Z,89.08
2022-09-30T22:16:35.087Z,89.15
2022-09-30T22:19:07.001Z,89.26
2022-09-30T22:21:37.117Z,89.32
2022-09-30T22:24:07.033Z,89.35
2022-09-30T22:26:35.513Z,89.41
2022-09-30T22:29:11.051Z,89.29
2022-09-30T22:31:39.457Z,89.30
2022-09-30T22:34:29.687Z,89.36
2022-09-30T22:37:16.233Z,89.26
2022-09-30T22:39:43.995Z,89.17
2022-09-30T22:42:11.862Z,89.08
2022-09-30T22:44:39.585Z,89.12
2022-09-30T22:47:10.933Z,89.22
2022-09-30T22:49:38.705Z,89.34
2022-09-30T22:52:06.907Z,89.39
2022-09-30T22:54:36.647Z,89.36
2022-09-30T22:57:09.124Z,89.43
2022-09-30T22:59:36.775Z,89.42
2022-09-30T23:02:05.360Z,89.51
2022-09-30T23:04:33.933Z,89.60
2022-09-30T23:07:01.757Z,89.68
2022-09-30T23:09:29.949Z,89.70
2022-09-30T23:11:58.237Z,89.76
2022-09-30T23:14:26.320Z,89.78
2022-09-30T23:16:54.299Z,89.81
2022-09-30T23:19:22.313Z,89.91
2022-09-30T23:21:50.028Z,89.94
2022-09-30T23:24:17.864Z,90.06
2022-09-30T23:26:46.237Z,90.06
2022-09-30T23:29:14.625Z,90.10
2022-09-30T23:31:42.967Z,90.08
2022-09-30T23:34:10.757Z,90.10
2022-09-30T23:36:38.497Z,90.16
2022-09-30T23:39:22.053Z,90.16
2022-09-30T23:41:50.249Z,90.20
2022-09-30T23:44:19.198Z,90.26
2022-09-30T23:47:07.258Z,90.37
2022-09-30T23:49:38.936Z,90.37
2022-09-30T23:52:12.981Z,90.43
2022-09-30T23:54:42.282Z,90.48
2022-09-30T23:57:10.881Z,90.43
2022-09-30T23:59:38.978Z,90.47
